createdAt,value
2023-01-19T00:00:56.588Z,1.70
2023-01-19T00:03:23.484Z,1.70
2023-01-19T00:05:51.846Z,1.70
2023-01-19T00:08:18.915Z,1.70
2023-01-19T00:10:48.572Z,1.70
2023-01-19T00:13:16.050Z,1.70
2023-01-19T00:15:43.944Z,1.70
2023-01-19T00:18:11.322Z,1.70
2023-01-19T00:20:40.021Z,1.70
2023-01-19T00:23:08.515Z,1.70
2023-01-19T00:25:42.875Z,1.70
2023-01-19T00:28:12.079Z,1.70
2023-01-19T00:30:39.578Z,1.70
2023-01-19T00:33:14.043Z,1.70
2023-01-19T00:35:42.566Z,1.70
2023-01-19T00:38:11.427Z,1.80
2023-01-19T00:40:38.268Z,1.80
2023-01-19T00:43:05.081Z,1.80
2023-01-19T00:45:33.250Z,1.80
2023-01-19T00:47:59.939Z,1.80
2023-01-19T00:50:28.248Z,1.80
2023-01-19T00:52:55.912Z,1.80
2023-01-19T00:55:23.217Z,1.80
2023-01-19T00:57:49.926Z,1.80
2023-01-19T01:00:19.619Z,1.80
2023-01-19T01:02:47.773Z,1.80
2023-01-19T01:05:14.572Z,1.90
2023-01-19T01:07:42.752Z,1.90
2023-01-19T01:10:14.852Z,1.90
2023-01-19T01:12:57.385Z,1.80
2023-01-19T01:15:26.248Z,1.90
2023-01-19T01:17:53.499Z,2.00
2023-01-19T01:20:27.708Z,2.00
2023-01-19T01:22:55.892Z,2.00
2023-01-19T01:25:24.259Z,2.00
2023-01-19T01:27:51.431Z,2.00
2023-01-19T01:30:18.859Z,2.00
2023-01-19T01:32:46.032Z,2.10
2023-01-19T01:35:16.913Z,2.10
2023-01-19T01:37:43.883Z,2.10
2023-01-19T01:40:16.158Z,2.10
2023-01-19T01:42:43.592Z,2.10
2023-01-19T01:45:35.843Z,2.10
2023-01-19T01:48:24.483Z,2.10
2023-01-19T01:51:14.939Z,2.20
2023-01-19T01:53:43.094Z,2.20
2023-01-19T01:56:14.827Z,2.20
2023-01-19T01:58:41.998Z,2.20
2023-01-19T02:01:29.142Z,2.20
2023-01-19T02:03:57.323Z,2.30
2023-01-19T02:06:24.858Z,2.30
2023-01-19T02:09:29.736Z,2.20
2023-01-19T02:12:15.777Z,2.30
2023-01-19T02:14:42.411Z,2.30
2023-01-19T02:17:09.274Z,2.40
2023-01-19T02:19:42.889Z,2.40
2023-01-19T02:22:40.880Z,2.40
2023-01-19T02:25:08.130Z,2.40
2023-01-19T02:27:36.922Z,2.40
2023-01-19T02:30:04.279Z,2.40
2023-01-19T02:32:31.263Z,2.40
2023-01-19T02:34:58.248Z,2.50
2023-01-19T02:37:28.244Z,2.50
2023-01-19T02:39:59.067Z,2.40
2023-01-19T02:42:34.736Z,2.40
2023-01-19T02:45:06.645Z,2.50
2023-01-19T02:47:42.954Z,2.50
2023-01-19T02:50:35.344Z,2.50
2023-01-19T02:53:44.265Z,2.50
2023-01-19T02:56:40.513Z,2.50
2023-01-19T02:59:25.317Z,2.40
2023-01-19T03:02:04.778Z,2.40
2023-01-19T03:04:49.578Z,2.40
2023-01-19T03:07:58.242Z,2.50
2023-01-19T03:10:53.112Z,2.60
2023-01-19T03:13:35.040Z,2.60
2023-01-19T03:16:13.320Z,2.60
2023-01-19T03:18:44.493Z,2.60
2023-01-19T03:21:13.874Z,2.60
2023-01-19T03:23:44.044Z,2.70
2023-01-19T03:26:14.651Z,2.70
2023-01-19T03:28:44.374Z,2.70
2023-01-19T03:31:24.246Z,2.60
2023-01-19T03:33:55.248Z,2.60
2023-01-19T03:36:44.412Z,2.50
2023-01-19T03:39:14.474Z,2.50
2023-01-19T03:41:42.781Z,2.50
2023-01-19T03:44:11.625Z,2.40
2023-01-19T03:46:38.891Z,2.20
2023-01-19T03:49:06.066Z,2.20
2023-01-19T03:51:36.745Z,2.10
2023-01-19T03:54:05.500Z,2.10
2023-01-19T03:56:32.258Z,2.10
2023-01-19T03:58:59.161Z,2.00
2023-01-19T04:01:26.078Z,2.00
2023-01-19T04:03:53.139Z,2.00
2023-01-19T04:06:21.485Z,2.00
2023-01-19T04:08:49.578Z,2.00
2023-01-19T04:11:16.804Z,2.00
2023-01-19T04:13:44.974Z,2.10
2023-01-19T04:16:12.354Z,2.00
2023-01-19T04:18:40.663Z,2.00
2023-01-19T04:21:08.263Z,2.00
2023-01-19T04:23:35.372Z,2.00
2023-01-19T04:26:04.695Z,2.00
2023-01-19T04:28:32.769Z,1.90
2023-01-19T04:30:59.530Z,1.90
2023-01-19T04:33:27.935Z,2.00
2023-01-19T04:35:55.981Z,2.00
2023-01-19T04:38:24.678Z,2.00
2023-01-19T04:40:53.629Z,2.00
2023-01-19T04:43:21.481Z,2.00
2023-01-19T04:45:49.028Z,1.90
2023-01-19T04:48:18.568Z,1.80
2023-01-19T04:50:45.912Z,1.90
2023-01-19T04:53:13.738Z,1.90
2023-01-19T04:55:40.890Z,1.90
2023-01-19T04:58:07.916Z,1.90
2023-01-19T05:00:34.829Z,1.90
2023-01-19T05:03:02.291Z,1.90
2023-01-19T05:05:29.582Z,1.90
2023-01-19T05:07:56.391Z,1.90
2023-01-19T05:10:23.754Z,1.90
2023-01-19T05:12:51.261Z,1.80
2023-01-19T05:15:18.155Z,1.90
2023-01-19T05:17:45.043Z,1.90
2023-01-19T05:20:15.729Z,1.90
2023-01-19T05:22:43.238Z,1.80
2023-01-19T05:25:10.261Z,1.90
2023-01-19T05:27:38.652Z,1.90
2023-01-19T05:30:06.526Z,1.90
2023-01-19T05:32:33.401Z,1.90
2023-01-19T05:35:00.131Z,1.90
2023-01-19T05:37:26.917Z,1.90
2023-01-19T05:39:54.001Z,1.90
2023-01-19T05:42:20.922Z,1.80
2023-01-19T05:44:47.950Z,1.80
2023-01-19T05:47:14.824Z,1.70
2023-01-19T05:49:41.631Z,1.60
2023-01-19T05:52:08.461Z,1.70
2023-01-19T05:54:35.229Z,1.70
2023-01-19T05:57:03.027Z,1.70
2023-01-19T05:59:29.757Z,1.60
2023-01-19T06:01:57.383Z,1.70
2023-01-19T06:04:27.246Z,1.60
2023-01-19T06:06:53.979Z,1.60
2023-01-19T06:09:20.623Z,1.60
2023-01-19T06:11:47.827Z,1.60
2023-01-19T06:14:14.548Z,1.60
2023-01-19T06:16:41.291Z,1.60
2023-01-19T06:19:08.185Z,1.60
2023-01-19T06:21:34.865Z,1.70
2023-01-19T06:24:01.754Z,1.70
2023-01-19T06:26:28.454Z,1.70
2023-01-19T06:28:55.188Z,1.70
2023-01-19T06:31:22.394Z,1.70
2023-01-19T06:33:49.829Z,1.80
2023-01-19T06:36:16.488Z,1.70
2023-01-19T06:38:43.144Z,1.80
2023-01-19T06:41:09.856Z,1.80
2023-01-19T06:43:36.799Z,1.80
2023-01-19T06:46:05.094Z,1.80
2023-01-19T06:48:31.778Z,1.90
2023-01-19T06:50:59.924Z,1.90
2023-01-19T06:53:30.156Z,2.00
2023-01-19T06:56:01.753Z,2.00
2023-01-19T06:58:29.615Z,1.90
2023-01-19T07:01:00.761Z,2.00
2023-01-19T07:03:28.440Z,2.00
2023-01-19T07:05:57.415Z,1.90
2023-01-19T07:08:24.178Z,1.90
2023-01-19T07:11:26.101Z,2.00
2023-01-19T07:13:39.887Z,1.90
2023-01-19T07:16:13.986Z,1.90
2023-01-19T07:18:41.014Z,1.90
2023-01-19T07:21:08.155Z,2.00
2023-01-19T07:23:35.412Z,2.00
2023-01-19T07:26:02.324Z,2.00
2023-01-19T07:28:30.994Z,2.00
2023-01-19T07:30:58.216Z,2.00
2023-01-19T07:33:26.091Z,2.00
2023-01-19T07:35:53.641Z,2.00
2023-01-19T07:38:21.076Z,2.10
2023-01-19T07:40:47.744Z,2.00
2023-01-19T07:43:15.147Z,2.00
2023-01-19T07:45:43.131Z,2.10
2023-01-19T07:48:09.888Z,2.10
2023-01-19T07:50:37.117Z,2.10
2023-01-19T07:53:08.408Z,2.10
2023-01-19T07:55:35.563Z,2.20
2023-01-19T07:58:06.443Z,2.20
2023-01-19T08:00:35.600Z,2.20
2023-01-19T08:03:03.595Z,2.30
2023-01-19T08:05:32.800Z,2.30
2023-01-19T08:08:00.497Z,2.20
2023-01-19T08:10:28.094Z,2.30
2023-01-19T08:12:56.385Z,2.30
2023-01-19T08:15:42.050Z,2.30
2023-01-19T08:18:29.091Z,2.30
2023-01-19T08:21:16.507Z,2.30
2023-01-19T08:24:03.975Z,2.40
2023-01-19T08:26:57.603Z,2.30
2023-01-19T08:29:24.346Z,2.40
2023-01-19T08:31:51.550Z,2.40
2023-01-19T08:34:18.389Z,2.40
2023-01-19T08:36:45.118Z,2.40
2023-01-19T08:39:14.866Z,2.50
2023-01-19T08:41:41.549Z,2.40
2023-01-19T08:44:08.264Z,2.40
2023-01-19T08:46:35.215Z,2.50
2023-01-19T08:49:01.953Z,2.50
2023-01-19T08:51:28.669Z,2.50
2023-01-19T08:53:55.808Z,2.50
2023-01-19T08:56:22.540Z,2.50
2023-01-19T08:58:59.498Z,2.60
2023-01-19T09:01:34.280Z,2.50
2023-01-19T09:04:01.579Z,2.60
2023-01-19T09:06:28.425Z,2.60
2023-01-19T09:08:55.132Z,2.50
2023-01-19T09:11:22.252Z,2.60
2023-01-19T09:13:48.924Z,2.60
2023-01-19T09:16:15.848Z,2.60
2023-01-19T09:18:42.790Z,2.60
2023-01-19T09:21:10.051Z,2.70
2023-01-19T09:23:36.786Z,2.70
2023-01-19T09:26:05.565Z,2.60
2023-01-19T09:28:33.103Z,2.70
2023-01-19T09:31:04.032Z,2.80
2023-01-19T09:33:31.124Z,2.80
2023-01-19T09:35:57.878Z,2.80
2023-01-19T09:38:25.831Z,2.80
2023-01-19T09:40:58.753Z,2.80
2023-01-19T09:43:41.354Z,2.80
2023-01-19T09:46:15.932Z,2.80
2023-01-19T09:48:46.238Z,2.90
2023-01-19T09:51:25.242Z,2.90
2023-01-19T09:54:14.460Z,2.90
2023-01-19T09:56:42.462Z,2.90
2023-01-19T09:59:28.653Z,3.00
2023-01-19T10:02:20.789Z,3.10
2023-01-19T10:05:01.325Z,3.20
2023-01-19T10:08:06.080Z,3.20
2023-01-19T10:10:35.099Z,3.20
2023-01-19T10:13:21.672Z,3.20
2023-01-19T10:16:09.743Z,3.20
2023-01-19T10:18:48.067Z,3.20
2023-01-19T10:21:39.789Z,3.30
2023-01-19T10:24:17.988Z,3.30
2023-01-19T10:26:52.551Z,3.30
2023-01-19T10:29:19.703Z,3.40
2023-01-19T10:31:47.161Z,3.40
2023-01-19T10:34:23.088Z,3.50
2023-01-19T10:36:58.288Z,3.60
2023-01-19T10:39:25.220Z,3.70
2023-01-19T10:41:53.464Z,3.70
2023-01-19T10:44:36.132Z,3.70
2023-01-19T10:47:06.217Z,3.70
2023-01-19T10:49:38.973Z,3.70
2023-01-19T10:52:08.192Z,3.70
2023-01-19T10:54:37.660Z,3.70
2023-01-19T10:57:08.028Z,3.70
2023-01-19T10:59:49.617Z,3.70
2023-01-19T11:02:29.261Z,3.80
2023-01-19T11:05:26.504Z,3.80
2023-01-19T11:07:53.207Z,3.80
2023-01-19T11:10:25.995Z,3.80
2023-01-19T11:13:01.393Z,3.80
2023-01-19T11:15:33.141Z,3.80
2023-01-19T11:18:01.043Z,3.80
2023-01-19T11:20:50.657Z,3.80
2023-01-19T11:23:27.170Z,3.90
2023-01-19T11:25:57.086Z,3.90
2023-01-19T11:28:40.044Z,3.90
2023-01-19T11:31:15.934Z,3.80
2023-01-19T11:33:42.633Z,3.80
2023-01-19T11:36:21.307Z,3.80
2023-01-19T11:38:53.284Z,3.80
2023-01-19T11:41:22.166Z,3.90
2023-01-19T11:43:55.320Z,3.90
2023-01-19T11:46:26.969Z,3.90
2023-01-19T11:49:01.854Z,3.90
2023-01-19T11:51:35.578Z,4.00
2023-01-19T11:54:06.355Z,4.00
2023-01-19T11:56:33.307Z,3.90
2023-01-19T11:59:02.225Z,3.90
2023-01-19T12:01:35.641Z,3.80
2023-01-19T12:04:39.451Z,3.90
2023-01-19T12:07:10.721Z,3.90
2023-01-19T12:09:51.755Z,3.90
2023-01-19T12:12:35.226Z,3.80
2023-01-19T12:15:22.850Z,3.80
2023-01-19T12:17:52.646Z,3.80
2023-01-19T12:20:26.841Z,3.90
2023-01-19T12:23:11.911Z,3.90
2023-01-19T12:26:01.734Z,3.90
2023-01-19T12:28:32.653Z,4.10
2023-01-19T12:31:01.013Z,4.10
2023-01-19T12:33:40.276Z,4.20
2023-01-19T12:36:17.853Z,4.20
2023-01-19T12:38:53.792Z,4.20
2023-01-19T12:41:31.150Z,4.20
2023-01-19T12:44:14.924Z,4.30
2023-01-19T12:46:49.474Z,4.30
2023-01-19T12:49:28.353Z,4.30
2023-01-19T12:52:20.197Z,4.30
2023-01-19T12:55:07.766Z,4.30
2023-01-19T12:57:51.678Z,4.30
2023-01-19T13:00:24.743Z,4.20
2023-01-19T13:02:57.201Z,4.20
2023-01-19T13:05:39.275Z,4.20
2023-01-19T13:08:06.418Z,4.30
2023-01-19T13:10:53.202Z,4.30
2023-01-19T13:13:25.264Z,4.50
2023-01-19T13:15:55.906Z,4.60
2023-01-19T13:18:39.069Z,4.60
2023-01-19T13:21:08.153Z,4.70
2023-01-19T13:23:56.947Z,4.60
2023-01-19T13:26:27.308Z,4.70
2023-01-19T13:29:06.916Z,4.70
2023-01-19T13:31:39.524Z,4.70
2023-01-19T13:34:13.599Z,4.70
2023-01-19T13:36:45.583Z,4.70
2023-01-19T13:39:20.015Z,4.70
2023-01-19T13:41:49.070Z,4.70
2023-01-19T13:44:42.156Z,4.70
2023-01-19T13:47:18.178Z,4.80
2023-01-19T13:49:46.824Z,4.90
2023-01-19T13:52:21.779Z,4.90
2023-01-19T13:54:53.264Z,4.80
2023-01-19T13:57:29.077Z,4.90
2023-01-19T14:00:15.344Z,4.90
2023-01-19T14:02:55.738Z,4.80
2023-01-19T14:05:26.261Z,4.80
2023-01-19T14:08:08.538Z,4.80
2023-01-19T14:10:37.130Z,4.80
2023-01-19T14:13:25.501Z,4.80
2023-01-19T14:15:59.147Z,4.90
2023-01-19T14:18:36.655Z,4.80
2023-01-19T14:21:03.663Z,4.80
2023-01-19T14:23:42.231Z,4.80
2023-01-19T14:26:41.897Z,4.80
2023-01-19T14:29:33.021Z,4.80
2023-01-19T14:32:19.566Z,4.70
2023-01-19T14:35:04.266Z,4.70
2023-01-19T14:37:37.126Z,4.80
2023-01-19T14:40:14.910Z,4.90
2023-01-19T14:43:06.370Z,4.80
2023-01-19T14:45:41.363Z,4.80
2023-01-19T14:48:20.742Z,4.80
2023-01-19T14:51:02.384Z,4.70
2023-01-19T14:53:38.389Z,4.60
2023-01-19T14:56:06.878Z,4.50
2023-01-19T14:58:35.535Z,4.60
2023-01-19T15:01:03.713Z,4.50
2023-01-19T15:03:44.233Z,4.60
2023-01-19T15:06:18.395Z,4.50
2023-01-19T15:08:46.299Z,4.40
2023-01-19T15:11:21.323Z,4.40
2023-01-19T15:13:49.224Z,4.30
2023-01-19T15:16:16.534Z,4.30
2023-01-19T15:18:43.471Z,4.20
2023-01-19T15:21:23.771Z,4.10
2023-01-19T15:23:50.898Z,4.10
2023-01-19T15:26:20.999Z,4.00
2023-01-19T15:28:49.568Z,3.90
2023-01-19T15:31:24.865Z,3.90
2023-01-19T15:33:52.228Z,3.80
2023-01-19T15:36:21.518Z,3.70
2023-01-19T15:38:51.477Z,3.60
2023-01-19T15:41:30.220Z,3.50
2023-01-19T15:43:57.483Z,3.40
2023-01-19T15:46:25.804Z,3.30
2023-01-19T15:48:54.258Z,3.30
2023-01-19T15:51:26.106Z,3.20
2023-01-19T15:53:54.155Z,3.30
2023-01-19T15:56:29.940Z,3.20
2023-01-19T15:58:58.372Z,3.10
2023-01-19T16:01:31.543Z,3.10
2023-01-19T16:04:00.880Z,3.00
2023-01-19T16:06:28.751Z,2.90
2023-01-19T16:08:59.839Z,2.80
2023-01-19T16:11:29.035Z,2.80
2023-01-19T16:13:56.156Z,2.70
2023-01-19T16:16:25.396Z,2.70
2023-01-19T16:18:52.523Z,2.70
2023-01-19T16:21:19.700Z,2.60
2023-01-19T16:23:46.719Z,2.50
2023-01-19T16:26:30.310Z,2.50
2023-01-19T16:29:02.952Z,2.50
2023-01-19T16:31:30.399Z,2.40
2023-01-19T16:34:03.387Z,2.40
2023-01-19T16:36:32.875Z,2.40
2023-01-19T16:39:06.837Z,2.40
2023-01-19T16:41:34.993Z,2.40
2023-01-19T16:44:02.468Z,2.40
2023-01-19T16:46:33.952Z,2.50
2023-01-19T16:49:06.976Z,2.40
2023-01-19T16:51:39.886Z,2.30
2023-01-19T16:54:07.191Z,2.30
2023-01-19T16:56:34.076Z,2.30
2023-01-19T16:59:01.017Z,2.30
2023-01-19T17:01:29.096Z,2.30
2023-01-19T17:03:56.540Z,2.30
2023-01-19T17:06:24.754Z,2.40
2023-01-19T17:08:53.929Z,2.40
2023-01-19T17:11:23.880Z,2.40
2023-01-19T17:14:02.056Z,2.40
2023-01-19T17:16:31.359Z,2.50
2023-01-19T17:19:01.622Z,2.50
2023-01-19T17:21:28.949Z,2.40
2023-01-19T17:23:57.145Z,2.40
2023-01-19T17:26:26.061Z,2.30
2023-01-19T17:28:57.429Z,2.20
2023-01-19T17:31:24.478Z,2.30
2023-01-19T17:33:51.536Z,2.30
2023-01-19T17:36:22.498Z,2.30
2023-01-19T17:38:50.275Z,2.30
2023-01-19T17:41:28.816Z,2.40
2023-01-19T17:43:56.300Z,2.40
2023-01-19T17:46:26.466Z,2.40
2023-01-19T17:49:04.027Z,2.50
2023-01-19T17:51:31.713Z,2.50
2023-01-19T17:54:00.202Z,2.40
2023-01-19T17:56:30.311Z,2.40
2023-01-19T17:58:58.097Z,2.40
2023-01-19T18:01:28.617Z,2.40
2023-01-19T18:03:56.568Z,2.40
2023-01-19T18:06:23.738Z,2.40
2023-01-19T18:08:51.671Z,2.40
2023-01-19T18:11:20.283Z,2.40
2023-01-19T18:13:49.076Z,2.50
2023-01-19T18:16:20.436Z,2.50
2023-01-19T18:18:49.593Z,2.50
2023-01-19T18:21:17.361Z,2.50
2023-01-19T18:23:45.488Z,2.50
2023-01-19T18:26:20.271Z,2.40
2023-01-19T18:28:48.386Z,2.40
2023-01-19T18:31:17.643Z,2.40
2023-01-19T18:33:45.400Z,2.50
2023-01-19T18:36:14.004Z,2.40
2023-01-19T18:38:41.364Z,2.40
2023-01-19T18:41:11.579Z,2.40
2023-01-19T18:43:39.267Z,2.30
2023-01-19T18:46:06.591Z,2.20
2023-01-19T18:48:33.764Z,2.10
2023-01-19T18:51:03.380Z,2.00
2023-01-19T18:53:31.544Z,2.00
2023-01-19T18:55:59.781Z,2.00
2023-01-19T18:58:29.877Z,1.90
2023-01-19T19:00:57.085Z,1.80
2023-01-19T19:03:24.266Z,1.80
2023-01-19T19:05:51.070Z,1.70
2023-01-19T19:08:18.027Z,1.70
2023-01-19T19:10:45.090Z,1.60
2023-01-19T19:13:13.873Z,1.60
2023-01-19T19:15:40.582Z,1.60
2023-01-19T19:18:08.926Z,1.50
2023-01-19T19:20:38.409Z,1.50
2023-01-19T19:23:05.493Z,1.50
2023-01-19T19:25:32.983Z,1.40
2023-01-19T19:27:59.731Z,1.40
2023-01-19T19:30:26.520Z,1.40
2023-01-19T19:32:56.050Z,1.30
2023-01-19T19:35:26.094Z,1.30
2023-01-19T19:37:57.231Z,1.20
2023-01-19T19:40:27.938Z,1.30
2023-01-19T19:42:56.995Z,1.10
2023-01-19T19:45:25.278Z,1.10
2023-01-19T19:47:52.573Z,1.10
2023-01-19T19:50:19.260Z,1.00
2023-01-19T19:52:45.986Z,1.00
2023-01-19T19:55:13.331Z,1.00
2023-01-19T19:57:40.049Z,1.00
2023-01-19T20:00:07.368Z,0.90
2023-01-19T20:02:34.189Z,0.90
2023-01-19T20:05:01.691Z,0.90
2023-01-19T20:07:28.426Z,0.90
2023-01-19T20:09:55.242Z,0.90
2023-01-19T20:12:22.454Z,0.90
2023-01-19T20:14:49.169Z,0.80
2023-01-19T20:17:16.038Z,0.80
2023-01-19T20:19:45.554Z,0.80
2023-01-19T20:22:12.233Z,0.80
2023-01-19T20:24:39.468Z,0.80
2023-01-19T20:27:06.220Z,0.80
2023-01-19T20:29:32.883Z,0.80
2023-01-19T20:31:59.936Z,0.70
2023-01-19T20:34:32.101Z,0.70
2023-01-19T20:37:01.181Z,0.70
2023-01-19T20:39:29.953Z,0.70
2023-01-19T20:41:56.994Z,0.70
2023-01-19T20:44:25.427Z,0.70
2023-01-19T20:46:53.044Z,0.70
2023-01-19T20:49:19.861Z,0.80
2023-01-19T20:51:46.953Z,0.70
2023-01-19T20:54:16.089Z,0.70
2023-01-19T20:56:42.869Z,0.70
2023-01-19T20:59:10.423Z,0.70
2023-01-19T21:01:37.360Z,0.70
2023-01-19T21:04:04.454Z,0.70
2023-01-19T21:06:31.182Z,0.70
2023-01-19T21:08:58.334Z,0.80
2023-01-19T21:11:25.581Z,0.80
2023-01-19T21:13:55.528Z,1.00
2023-01-19T21:16:27.901Z,1.00
2023-01-19T21:18:55.141Z,1.10
2023-01-19T21:21:30.326Z,1.00
2023-01-19T21:23:59.134Z,1.00
2023-01-19T21:26:26.012Z,1.00
2023-01-19T21:28:53.210Z,1.00
2023-01-19T21:31:22.503Z,1.00
2023-01-19T21:33:53.766Z,1.00
2023-01-19T21:36:22.340Z,0.90
2023-01-19T21:38:51.296Z,0.90
2023-01-19T21:41:18.526Z,0.90
2023-01-19T21:43:46.023Z,0.90
2023-01-19T21:46:18.209Z,0.90
2023-01-19T21:48:45.958Z,0.90
2023-01-19T21:51:13.604Z,0.80
2023-01-19T21:53:41.025Z,0.90
2023-01-19T21:56:10.868Z,0.90
2023-01-19T21:58:37.966Z,0.90
2023-01-19T22:01:10.587Z,1.00
2023-01-19T22:03:37.334Z,1.00
2023-01-19T22:06:06.016Z,1.10
2023-01-19T22:08:33.252Z,1.20
2023-01-19T22:11:07.462Z,1.20
2023-01-19T22:13:35.576Z,1.20
2023-01-19T22:16:04.006Z,1.30
2023-01-19T22:18:30.934Z,1.30
2023-01-19T22:21:11.150Z,1.40
2023-01-19T22:23:38.211Z,1.40
2023-01-19T22:26:05.929Z,1.50
2023-01-19T22:28:32.783Z,1.50
2023-01-19T22:31:08.780Z,1.50
2023-01-19T22:33:36.089Z,1.50
2023-01-19T22:36:19.747Z,1.40
2023-01-19T22:39:00.712Z,1.50
2023-01-19T22:41:30.329Z,1.50
2023-01-19T22:43:59.723Z,1.40
2023-01-19T22:46:29.282Z,1.50
2023-01-19T22:48:56.632Z,1.50
2023-01-19T22:51:25.163Z,1.60
2023-01-19T22:53:52.801Z,1.70
2023-01-19T22:56:25.215Z,1.60
2023-01-19T22:58:52.347Z,1.70
2023-01-19T23:01:31.390Z,1.70
2023-01-19T23:03:58.850Z,1.60
2023-01-19T23:06:28.257Z,1.60
2023-01-19T23:08:56.944Z,1.60
2023-01-19T23:11:26.183Z,1.60
2023-01-19T23:13:53.600Z,1.60
2023-01-19T23:16:21.033Z,1.60
2023-01-19T23:18:48.260Z,1.60
2023-01-19T23:21:17.838Z,1.60
2023-01-19T23:23:45.753Z,1.70
2023-01-19T23:26:13.533Z,1.70
2023-01-19T23:28:40.656Z,1.70
2023-01-19T23:31:22.387Z,1.70
2023-01-19T23:33:54.621Z,1.70
2023-01-19T23:36:23.489Z,1.70
2023-01-19T23:38:52.862Z,1.70
2023-01-19T23:41:20.533Z,1.70
2023-01-19T23:43:47.297Z,1.70
2023-01-19T23:46:14.886Z,1.70
2023-01-19T23:48:41.957Z,1.70
2023-01-19T23:51:15.194Z,1.70
2023-01-19T23:53:42.383Z,1.70
2023-01-19T23:56:13.656Z,1.70
2023-01-19T23:58:41.148Z,1.70
